Time;durP1;ratioP1;P1;durP2;ratioP2;P2;SDS_P1;SDS_P2;PMS_P1;PMS_P2;Temp;Humidity;BMP_temperature;BMP_pressure;BME280_temperature;BME280_humidity;BME280_pressure;Samples;Min_cycle;Max_cycle;Signal;HPM_P1;HPM_P2
2023/12/29 00:00:30;;;;;;;13.27;3.28;;;;;;;7.61;100.00;99906.47;4969196;28;20186;-44
2023/12/29 00:02:56;;;;;;;15.93;3.38;;;;;;;7.60;100.00;99913.56;4968884;28;20202;-46
2023/12/29 00:05:21;;;;;;;10.77;2.70;;;;;;;7.61;100.00;99915.34;4966376;28;20210;-45
2023/12/29 00:07:47;;;;;;;13.75;3.63;;;;;;;7.63;100.00;99912.59;4968111;28;20193;-46
2023/12/29 00:10:12;;;;;;;12.77;3.10;;;;;;;7.62;100.00;99902.88;4963520;28;20189;-46
2023/12/29 00:12:38;;;;;;;13.35;2.80;;;;;;;7.63;100.00;99902.81;4968325;28;20217;-45
2023/12/29 00:15:04;;;;;;;20.30;3.55;;;;;;;7.68;100.00;99904.44;4969327;28;20546;-47
2023/12/29 00:17:29;;;;;;;18.23;3.28;;;;;;;7.66;100.00;99906.28;4969054;28;20386;-45
2023/12/29 00:19:55;;;;;;;9.55;2.47;;;;;;;7.68;100.00;99909.75;4968182;28;20178;-46
2023/12/29 00:22:21;;;;;;;10.48;2.53;;;;;;;7.69;100.00;99916.81;4969545;28;20707;-46
2023/12/29 00:24:46;;;;;;;9.75;2.58;;;;;;;7.74;100.00;99902.38;4969369;28;20626;-45
2023/12/29 00:27:13;;;;;;;10.45;2.38;;;;;;;7.75;100.00;99892.56;4969093;28;20202;-45
2023/12/29 00:29:39;;;;;;;9.50;2.08;;;;;;;7.78;100.00;99917.31;4969022;28;20932;-46
2023/12/29 00:32:05;;;;;;;8.27;1.83;;;;;;;7.74;100.00;99912.16;4969086;28;20182;-46
2023/12/29 00:34:30;;;;;;;9.82;1.83;;;;;;;7.77;100.00;99920.91;4966362;28;20206;-45
2023/12/29 00:36:56;;;;;;;12.82;1.95;;;;;;;7.79;100.00;99913.69;4968663;28;20186;-46
2023/12/29 00:39:28;;;;;;;6.40;1.80;;;;;;;7.82;100.00;99900.22;4982751;28;20198;-45
2023/12/29 00:41:56;;;;;;;9.10;1.70;;;;;;;7.80;100.00;99896.75;4969056;28;21152;-46
2023/12/29 00:44:21;;;;;;;4.63;1.52;;;;;;;7.84;100.00;99903.69;4966052;28;20202;-45
2023/12/29 00:46:47;;;;;;;4.85;1.48;;;;;;;7.84;100.00;99895.69;4968482;28;20189;-45
2023/12/29 00:49:12;;;;;;;6.50;2.22;;;;;;;7.72;100.00;99908.66;4964643;28;20178;-46
2023/12/29 00:51:41;;;;;;;9.55;1.42;;;;;;;7.60;100.00;99897.59;4968581;28;20190;-45
2023/12/29 00:54:07;;;;;;;6.68;1.80;;;;;;;7.56;100.00;99890.63;4967560;28;20485;-45
2023/12/29 00:56:33;;;;;;;5.50;1.50;;;;;;;7.54;100.00;99892.53;4968904;28;20574;-46
2023/12/29 00:58:59;;;;;;;11.65;1.75;;;;;;;7.56;100.00;99884.44;4969382;28;20719;-45
2023/12/29 01:01:25;;;;;;;5.95;1.45;;;;;;;7.57;100.00;99887.06;4968541;28;20206;-44
2023/12/29 01:03:54;;;;;;;7.72;2.03;;;;;;;7.53;100.00;99873.94;4967469;28;20229;-44
2023/12/29 01:06:20;;;;;;;5.40;1.25;;;;;;;7.51;100.00;99870.47;4978144;28;20305;-45
2023/12/29 01:08:46;;;;;;;6.88;1.30;;;;;;;7.52;100.00;99882.84;4969106;28;20273;-46
2023/12/29 01:11:11;;;;;;;6.05;1.60;;;;;;;7.48;100.00;99849.25;4967712;28;20292;-46
2023/12/29 01:13:37;;;;;;;5.10;1.58;;;;;;;7.56;100.00;99873.78;4967563;28;20296;-46
2023/12/29 01:16:02;;;;;;;9.32;1.73;;;;;;;7.54;100.00;99884.53;4968184;28;20208;-45
2023/12/29 01:18:28;;;;;;;6.57;1.50;;;;;;;7.50;100.00;99882.03;4968500;28;20904;-45
2023/12/29 01:20:53;;;;;;;6.15;1.70;;;;;;;7.49;100.00;99861.66;4966082;28;20190;-45
2023/12/29 01:23:19;;;;;;;5.25;1.75;;;;;;;7.49;100.00;99877.66;4968149;28;20204;-45
2023/12/29 01:25:44;;;;;;;7.13;2.13;;;;;;;7.51;100.00;99879.31;4980610;28;20901;-46
2023/12/29 01:28:10;;;;;;;10.45;1.77;;;;;;;7.50;100.00;99887.34;4969087;28;20197;-45
2023/12/29 01:30:36;;;;;;;10.00;2.47;;;;;;;7.51;100.00;99887.31;4967659;28;20380;-45
2023/12/29 01:33:01;;;;;;;7.63;1.88;;;;;;;7.53;100.00;99884.59;4967978;28;20599;-46
2023/12/29 01:35:26;;;;;;;8.13;2.22;;;;;;;7.54;100.00;99872.97;4965816;28;20198;-45
2023/12/29 01:37:55;;;;;;;7.63;2.28;;;;;;;7.53;100.00;99872.13;4967195;28;20202;-45
2023/12/29 01:40:20;;;;;;;9.32;2.13;;;;;;;7.54;100.00;99870.31;4967060;28;20209;-45
2023/12/29 01:42:46;;;;;;;6.90;2.00;;;;;;;7.53;100.00;99874.78;4965481;28;20272;-44
2023/12/29 01:45:22;;;;;;;7.05;2.03;;;;;;;7.53;100.00;99863.25;4969255;28;20182;-45
2023/12/29 01:47:48;;;;;;;9.93;2.22;;;;;;;7.56;100.00;99868.47;4964051;28;20185;-44
2023/12/29 01:50:13;;;;;;;11.27;2.28;;;;;;;7.55;100.00;99869.41;4968510;28;20221;-45
2023/12/29 01:52:43;;;;;;;9.55;2.60;;;;;;;7.63;100.00;99856.59;4968907;28;20274;-45
2023/12/29 01:55:11;;;;;;;9.98;2.55;;;;;;;7.59;100.00;99858.53;4965927;28;20214;-46
2023/12/29 01:57:38;;;;;;;6.82;2.03;;;;;;;7.63;100.00;99852.16;4967177;28;20273;-45
2023/12/29 02:00:05;;;;;;;10.80;2.38;;;;;;;7.68;100.00;99857.28;4965549;28;20277;-45
2023/12/29 02:02:38;;;;;;;8.80;2.35;;;;;;;7.64;100.00;99842.34;4965314;28;20361;-44
2023/12/29 02:05:05;;;;;;;8.45;2.00;;;;;;;7.67;100.00;99836.88;4968089;28;20594;-46
2023/12/29 02:07:31;;;;;;;6.28;1.98;;;;;;;7.64;100.00;99832.56;4968004;28;20186;-45
2023/12/29 02:09:59;;;;;;;5.68;2.00;;;;;;;7.68;100.00;99832.44;4967060;28;20272;-45
2023/12/29 02:12:25;;;;;;;6.53;2.05;;;;;;;7.69;100.00;99832.34;4964774;28;20225;-44
2023/12/29 02:14:51;;;;;;;9.23;2.10;;;;;;;7.67;100.00;99828.03;4968078;28;20281;-45
2023/12/29 02:17:30;;;;;;;8.65;2.13;;;;;;;7.72;100.00;99820.69;4965942;28;20193;-45
2023/12/29 02:19:56;;;;;;;9.57;2.15;;;;;;;7.75;100.00;99820.56;4965610;28;20186;-45
2023/12/29 02:22:22;;;;;;;8.65;1.77;;;;;;;7.75;100.00;99807.25;4968198;28;20659;-44
2023/12/29 02:24:51;;;;;;;6.22;1.88;;;;;;;7.84;100.00;99831.69;4967587;28;20551;-45
2023/12/29 02:27:17;;;;;;;10.57;2.15;;;;;;;7.85;100.00;99827.25;4978468;28;20193;-46
2023/12/29 02:29:49;;;;;;;9.82;2.13;;;;;;;8.02;100.00;99818.50;4962996;28;20243;-44
2023/12/29 02:32:18;;;;;;;6.43;1.92;;;;;;;7.90;100.00;99811.91;4970678;28;20517;-45
2023/12/29 02:34:47;;;;;;;14.45;3.00;;;;;;;7.92;100.00;99822.53;4970054;28;20198;-45
2023/12/29 02:37:12;;;;;;;7.38;2.20;;;;;;;7.99;100.00;99815.97;4971048;28;20194;-45
2023/12/29 02:39:38;;;;;;;8.25;2.03;;;;;;;7.89;100.00;99815.50;4968373;28;20190;-46
2023/12/29 02:42:04;;;;;;;14.02;2.65;;;;;;;7.95;100.00;99814.38;4968781;28;20245;-46
2023/12/29 02:44:29;;;;;;;10.30;2.60;;;;;;;7.93;100.00;99818.91;4969397;28;20564;-46
2023/12/29 02:46:55;;;;;;;12.68;2.63;;;;;;;8.00;100.00;99799.91;4970847;28;20182;-44
2023/12/29 02:49:20;;;;;;;11.80;3.00;;;;;;;8.02;100.00;99790.03;4965847;28;20224;-44
2023/12/29 02:51:47;;;;;;;10.07;2.35;;;;;;;8.03;100.00;99794.44;4965645;28;20202;-44
2023/12/29 02:54:13;;;;;;;12.18;2.58;;;;;;;8.00;100.00;99783.03;4969599;28;20202;-44
2023/12/29 02:56:38;;;;;;;10.27;3.00;;;;;;;8.08;100.00;99786.22;4968700;28;20212;-45
2023/12/29 02:59:04;;;;;;;10.68;2.40;;;;;;;8.07;100.00;99779.16;4969000;28;20560;-45
2023/12/29 03:01:29;;;;;;;9.15;2.63;;;;;;;8.03;100.00;99772.22;4969566;28;20201;-45
2023/12/29 03:03:56;;;;;;;11.40;2.70;;;;;;;8.05;100.00;99781.03;4968263;28;20228;-45
2023/12/29 03:06:21;;;;;;;12.00;2.85;;;;;;;8.03;100.00;99770.44;4971913;28;20273;-46
2023/12/29 03:08:47;;;;;;;10.38;2.25;;;;;;;8.04;100.00;99773.94;4970723;28;20182;-44
2023/12/29 03:11:12;;;;;;;9.18;2.67;;;;;;;8.03;100.00;99772.22;4967228;28;20596;-44
2023/12/29 03:13:38;;;;;;;12.98;3.00;;;;;;;8.04;100.00;99764.13;4968622;28;20660;-44
2023/12/29 03:16:03;;;;;;;12.07;2.35;;;;;;;8.06;100.00;99764.09;4969023;28;20206;-44
2023/12/29 03:18:29;;;;;;;11.88;2.88;;;;;;;8.05;100.00;99752.56;4980107;28;20224;-46
2023/12/29 03:20:55;;;;;;;12.38;2.53;;;;;;;8.08;100.00;99748.00;4969847;28;20726;-45
2023/12/29 03:23:21;;;;;;;12.40;2.50;;;;;;;8.04;100.00;99744.59;4967387;28;20745;-44
2023/12/29 03:25:46;;;;;;;13.00;2.72;;;;;;;8.08;100.00;99748.88;4969941;28;20181;-44
2023/12/29 03:28:12;;;;;;;18.80;2.55;;;;;;;8.11;100.00;99743.41;4969018;28;20276;-47
2023/12/29 03:30:37;;;;;;;12.05;2.50;;;;;;;8.10;100.00;99740.81;4969156;28;20182;-45
2023/12/29 03:33:03;;;;;;;15.27;2.80;;;;;;;8.18;100.00;99757.34;4968433;28;20282;-44
2023/12/29 03:35:29;;;;;;;16.75;3.10;;;;;;;8.25;100.00;99743.63;4969942;28;20225;-45
2023/12/29 03:37:55;;;;;;;13.48;3.67;;;;;;;8.31;100.00;99733.59;4969467;28;20193;-45
2023/12/29 03:40:20;;;;;;;9.70;2.53;;;;;;;8.36;100.00;99731.59;4967431;28;20182;-44
2023/12/29 03:42:46;;;;;;;13.10;2.53;;;;;;;8.45;100.00;99712.50;4967527;28;20229;-45
2023/12/29 03:45:11;;;;;;;15.52;2.72;;;;;;;8.42;100.00;99720.69;4967283;28;20273;-45
2023/12/29 03:47:37;;;;;;;13.40;3.03;;;;;;;8.39;100.00;99705.63;4969341;28;20652;-45
2023/12/29 03:50:04;;;;;;;10.65;2.75;;;;;;;8.44;100.00;99702.78;4970476;28;20273;-44
2023/12/29 03:52:29;;;;;;;12.50;2.72;;;;;;;8.43;100.00;99701.03;4963026;28;20292;-44
2023/12/29 03:54:54;;;;;;;14.88;2.70;;;;;;;8.42;100.00;99705.53;4969278;28;20209;-45
2023/12/29 03:57:20;;;;;;;15.15;2.60;;;;;;;8.39;100.00;99699.41;4968522;28;20703;-45
2023/12/29 03:59:46;;;;;;;11.98;2.38;;;;;;;8.40;100.00;99704.72;4967031;28;20189;-44
2023/12/29 04:02:11;;;;;;;13.32;2.55;;;;;;;8.47;100.00;99715.97;4969282;28;20189;-44
2023/12/29 04:04:38;;;;;;;13.52;3.15;;;;;;;8.50;100.00;99709.63;4969347;28;20221;-44
2023/12/29 04:07:04;;;;;;;16.33;3.13;;;;;;;8.49;100.00;99710.56;4969992;28;20205;-45
2023/12/29 04:09:30;;;;;;;10.48;2.33;;;;;;;8.49;100.00;99706.09;4966292;28;20190;-46
2023/12/29 04:11:56;;;;;;;17.83;3.45;;;;;;;8.48;100.00;99704.34;4959090;28;20194;-45
2023/12/29 04:14:21;;;;;;;15.43;3.13;;;;;;;8.43;100.00;99691.22;4967686;28;20221;-45
2023/12/29 04:16:47;;;;;;;13.82;2.47;;;;;;;8.48;100.00;99687.47;4958856;28;20182;-44
2023/12/29 04:19:13;;;;;;;12.15;2.65;;;;;;;8.38;100.00;99674.53;4969662;28;20193;-45
2023/12/29 04:21:38;;;;;;;10.98;2.75;;;;;;;8.35;100.00;99682.72;4967990;28;20202;-45
2023/12/29 04:24:04;;;;;;;12.50;3.08;;;;;;;8.39;100.00;99689.59;4968163;28;20213;-45
2023/12/29 04:26:35;;;;;;;11.60;2.65;;;;;;;8.37;100.00;99690.63;4959300;28;20185;-45
2023/12/29 04:29:01;;;;;;;15.73;2.90;;;;;;;8.34;100.00;99688.97;4962181;28;20192;-45
2023/12/29 04:31:26;;;;;;;13.27;2.63;;;;;;;8.32;100.00;99696.19;4969892;28;20189;-45
2023/12/29 04:33:52;;;;;;;13.52;3.38;;;;;;;8.31;100.00;99681.13;4968411;28;20287;-46
2023/12/29 04:36:18;;;;;;;12.65;2.92;;;;;;;8.33;100.00;99681.91;4966856;28;20182;-45
2023/12/29 04:38:44;;;;;;;9.52;2.45;;;;;;;8.31;100.00;99675.78;4969398;28;20196;-44
2023/12/29 04:41:12;;;;;;;13.85;2.83;;;;;;;8.31;100.00;99680.22;4968223;28;20645;-45
2023/12/29 04:43:38;;;;;;;11.05;2.42;;;;;;;8.22;100.00;99689.53;4966907;28;20202;-45
2023/12/29 04:46:03;;;;;;;13.98;2.00;;;;;;;8.24;100.00;99679.66;4968079;28;20174;-45
2023/12/29 04:48:29;;;;;;;15.35;2.55;;;;;;;8.28;100.00;99685.72;4968797;28;20202;-45
2023/12/29 04:50:54;;;;;;;15.40;2.25;;;;;;;8.22;100.00;99670.84;4966991;28;20197;-45
2023/12/29 04:53:20;;;;;;;14.75;2.45;;;;;;;8.25;100.00;99686.75;4968037;28;20206;-44
2023/12/29 04:55:45;;;;;;;9.95;1.80;;;;;;;8.26;100.00;99693.78;4969082;28;20209;-45
2023/12/29 04:58:11;;;;;;;14.55;2.38;;;;;;;8.20;100.00;99676.28;4969422;28;20241;-44
2023/12/29 05:00:37;;;;;;;10.05;2.28;;;;;;;8.27;100.00;99694.69;4966062;28;20213;-46
2023/12/29 05:03:03;;;;;;;10.68;2.60;;;;;;;8.26;100.00;99677.78;4966327;28;20229;-46
2023/12/29 05:05:28;;;;;;;11.82;2.80;;;;;;;8.21;100.00;99680.66;4968359;28;20197;-46
2023/12/29 05:07:53;;;;;;;13.30;2.42;;;;;;;8.24;100.00;99685.88;4967757;28;21323;-45
2023/12/29 05:10:19;;;;;;;10.93;2.42;;;;;;;8.26;100.00;99680.44;4967294;28;20185;-45
2023/12/29 05:12:44;;;;;;;11.15;2.13;;;;;;;8.26;100.00;99669.78;4967373;28;20209;-45
2023/12/29 05:15:10;;;;;;;14.02;2.70;;;;;;;8.23;100.00;99705.47;4965943;28;20248;-45
2023/12/29 05:17:35;;;;;;;15.20;2.95;;;;;;;8.28;100.00;99667.03;4968439;28;20679;-45
2023/12/29 05:20:01;;;;;;;14.68;2.83;;;;;;;8.22;100.00;99686.88;4967266;28;20196;-46
2023/12/29 05:22:27;;;;;;;11.93;2.40;;;;;;;8.23;100.00;99676.13;4967077;28;20209;-45
2023/12/29 05:24:53;;;;;;;9.10;2.40;;;;;;;8.16;100.00;99682.69;4967029;28;20183;-45
2023/12/29 05:27:18;;;;;;;15.18;2.65;;;;;;;8.22;100.00;99673.53;4969453;28;20299;-44
2023/12/29 05:29:43;;;;;;;19.77;2.92;;;;;;;8.11;100.00;99684.72;4967242;28;20213;-46
2023/12/29 05:32:09;;;;;;;17.63;3.15;;;;;;;8.09;100.00;99689.25;4966707;28;20187;-46
2023/12/29 05:34:35;;;;;;;16.55;2.67;;;;;;;8.11;100.00;99698.06;4967638;28;20197;-46
2023/12/29 05:37:00;;;;;;;16.30;2.95;;;;;;;8.08;100.00;99684.00;4967486;28;20189;-45
2023/12/29 05:39:26;;;;;;;9.68;2.60;;;;;;;8.05;100.00;99701.88;4967579;28;20570;-45
2023/12/29 05:41:51;;;;;;;17.00;2.90;;;;;;;7.97;100.00;99695.16;4967469;28;20881;-46
2023/12/29 05:44:17;;;;;;;20.20;3.03;;;;;;;7.98;100.00;99702.19;4966028;28;20224;-45
2023/12/29 05:46:46;;;;;;;17.52;3.83;;;;;;;7.90;100.00;99683.91;4966401;28;20204;-45
2023/12/29 05:49:12;;;;;;;20.70;3.42;;;;;;;7.87;100.00;99696.50;4968393;28;20201;-46
2023/12/29 05:51:37;;;;;;;17.23;2.80;;;;;;;7.82;100.00;99686.91;4967361;28;20194;-46
2023/12/29 05:54:03;;;;;;;18.35;3.33;;;;;;;7.79;100.00;99708.38;4966686;28;20205;-47
2023/12/29 05:56:28;;;;;;;14.50;3.17;;;;;;;7.87;100.00;99692.06;4968120;28;20182;-46
2023/12/29 05:58:54;;;;;;;19.17;3.58;;;;;;;7.82;100.00;99710.91;4966577;28;20190;-45
2023/12/29 06:01:20;;;;;;;20.13;3.65;;;;;;;7.88;100.00;99685.78;4967551;28;20190;-45
2023/12/29 06:03:45;;;;;;;13.05;3.20;;;;;;;7.86;100.00;99682.31;4968516;28;20233;-44
2023/12/29 06:06:11;;;;;;;14.48;3.20;;;;;;;7.84;100.00;99713.50;4968856;28;20208;-46
2023/12/29 06:08:36;;;;;;;16.00;3.50;;;;;;;7.38;100.00;99707.53;4970225;28;20198;-45
2023/12/29 06:11:02;;;;;;;19.20;3.50;;;;;;;7.02;100.00;99702.84;4969272;28;20194;-45
2023/12/29 06:13:29;;;;;;;15.95;2.85;;;;;;;7.08;100.00;99704.38;4970804;28;20217;-45
2023/12/29 06:15:54;;;;;;;20.25;2.90;;;;;;;7.10;100.00;99716.69;4971025;28;20583;-46
2023/12/29 06:18:20;;;;;;;18.70;3.03;;;;;;;7.03;100.00;99733.88;4972008;28;20198;-45
2023/12/29 06:20:45;;;;;;;23.13;3.45;;;;;;;7.06;100.00;99738.19;4970020;28;20198;-45
2023/12/29 06:23:11;;;;;;;17.92;3.28;;;;;;;7.06;100.00;99735.53;4969865;28;20217;-44
2023/12/29 06:25:37;;;;;;;18.58;3.83;;;;;;;7.15;100.00;99748.47;4968755;28;20633;-45
2023/12/29 06:28:06;;;;;;;28.48;4.20;;;;;;;7.16;100.00;99744.88;4971311;28;20209;-44
2023/12/29 06:30:31;;;;;;;28.25;3.67;;;;;;;7.12;100.00;99741.47;4970179;28;20189;-44
2023/12/29 06:32:57;;;;;;;17.77;3.33;;;;;;;7.13;100.00;99753.88;4968988;28;20204;-44
2023/12/29 06:35:23;;;;;;;27.02;4.00;;;;;;;7.28;100.00;99751.47;4968632;28;20615;-41
2023/12/29 06:37:49;;;;;;;22.10;3.95;;;;;;;7.31;100.00;99762.03;4970579;28;20220;-46
2023/12/29 06:40:16;;;;;;;15.20;3.53;;;;;;;7.28;100.00;99781.69;4971167;28;20669;-43
2023/12/29 06:42:42;;;;;;;20.92;3.83;;;;;;;7.30;100.00;99769.13;4967539;28;20212;-45
2023/12/29 06:45:08;;;;;;;20.73;3.42;;;;;;;7.32;100.00;99775.25;4970843;28;20186;-44
2023/12/29 06:47:34;;;;;;;20.55;3.70;;;;;;;7.31;100.00;99757.56;4968621;28;20186;-45
2023/12/29 06:49:59;;;;;;;22.15;3.67;;;;;;;7.26;100.00;99766.66;4970248;28;20571;-44
2023/12/29 06:52:26;;;;;;;26.30;4.35;;;;;;;7.18;100.00;99761.66;4969682;28;20285;-44
2023/12/29 06:54:52;;;;;;;15.63;3.55;;;;;;;7.29;100.00;99777.22;4969954;28;20292;-44
2023/12/29 06:57:17;;;;;;;22.10;5.45;;;;;;;7.31;100.00;99772.69;4971218;28;20256;-44
2023/12/29 06:59:43;;;;;;;21.65;4.10;;;;;;;7.32;100.00;99777.94;4969544;28;20539;-45
2023/12/29 07:02:08;;;;;;;26.63;4.32;;;;;;;7.32;100.00;99772.59;4970268;28;20337;-44
2023/12/29 07:04:34;;;;;;;23.92;4.15;;;;;;;7.43;100.00;99772.16;4967414;28;20589;-44
2023/12/29 07:07:00;;;;;;;22.30;4.00;;;;;;;7.46;100.00;99766.72;4969915;28;20284;-44
2023/12/29 07:09:26;;;;;;;21.55;4.93;;;;;;;7.42;100.00;99759.78;4969938;28;20193;-44
2023/12/29 07:11:51;;;;;;;28.52;4.50;;;;;;;7.43;100.00;99761.50;4969911;28;20202;-44
2023/12/29 07:14:17;;;;;;;24.15;3.97;;;;;;;7.47;100.00;99768.44;4969051;28;20641;-42
2023/12/29 07:16:43;;;;;;;21.73;3.75;;;;;;;7.49;100.00;99753.25;4969513;28;20206;-43
2023/12/29 07:19:09;;;;;;;20.52;3.92;;;;;;;7.67;100.00;99764.91;4969557;28;20186;-42
2023/12/29 07:21:35;;;;;;;21.05;4.68;;;;;;;7.66;100.00;99763.19;4968258;28;20186;-44
2023/12/29 07:24:00;;;;;;;27.60;5.05;;;;;;;7.64;100.00;99763.25;4968338;28;20214;-42
2023/12/29 07:26:26;;;;;;;24.73;4.47;;;;;;;7.55;100.00;99768.97;4970617;28;20193;-42
2023/12/29 07:28:54;;;;;;;19.45;4.10;;;;;;;7.59;100.00;99741.25;4969822;28;20201;-43
2023/12/29 07:31:22;;;;;;;18.08;4.13;;;;;;;7.58;100.00;99731.50;4970454;28;20190;-42
2023/12/29 07:33:47;;;;;;;28.98;4.65;;;;;;;7.64;100.00;99765.03;4969914;28;20218;-43
2023/12/29 07:36:13;;;;;;;19.08;3.78;;;;;;;7.64;100.00;99757.06;4970568;28;20213;-42
2023/12/29 07:38:38;;;;;;;27.30;4.43;;;;;;;7.65;100.00;99745.44;4970192;28;20645;-44
2023/12/29 07:41:04;;;;;;;27.25;5.07;;;;;;;7.66;100.00;99746.31;4971050;28;20225;-44
2023/12/29 07:43:31;;;;;;;19.17;3.92;;;;;;;7.66;100.00;99741.84;4966527;28;20261;-44
2023/12/29 07:45:57;;;;;;;27.33;4.57;;;;;;;7.71;100.00;99749.66;4969676;28;20177;-44
2023/12/29 07:48:22;;;;;;;22.40;6.43;;;;;;;7.67;100.00;99756.03;4965572;28;20692;-43
2023/12/29 07:50:48;;;;;;;24.90;5.63;;;;;;;7.69;100.00;99747.03;4968520;28;20276;-43
2023/12/29 07:53:14;;;;;;;24.33;4.38;;;;;;;7.71;100.00;99765.66;4969318;28;20218;-43
2023/12/29 07:55:39;;;;;;;27.52;5.07;;;;;;;7.76;100.00;99755.63;4967937;28;20515;-44
2023/12/29 07:58:06;;;;;;;26.63;4.80;;;;;;;7.76;100.00;99753.84;4968619;28;20196;-43
2023/12/29 08:00:31;;;;;;;23.60;4.28;;;;;;;7.71;100.00;99766.50;4968513;28;20589;-44
2023/12/29 08:02:59;;;;;;;26.15;4.28;;;;;;;7.75;100.00;99769.91;4969512;28;20253;-42
2023/12/29 08:05:24;;;;;;;21.08;4.13;;;;;;;7.73;100.00;99769.13;4969680;28;20182;-43
2023/12/29 08:07:50;;;;;;;26.65;4.70;;;;;;;7.75;100.00;99761.91;4969369;28;20180;-42
2023/12/29 08:10:15;;;;;;;23.23;5.20;;;;;;;7.80;100.00;99770.56;4967681;28;20205;-43
2023/12/29 08:12:41;;;;;;;22.92;4.88;;;;;;;7.73;100.00;99769.13;4968615;28;20221;-45
2023/12/29 08:15:06;;;;;;;23.27;4.32;;;;;;;7.77;100.00;99763.56;4968542;28;20292;-43
2023/12/29 08:17:32;;;;;;;25.77;4.93;;;;;;;7.77;100.00;99749.38;4967564;28;20185;-43
2023/12/29 08:19:57;;;;;;;26.73;5.47;;;;;;;7.73;100.00;99753.13;4969691;28;20774;-43
2023/12/29 08:22:23;;;;;;;28.83;4.60;;;;;;;7.78;100.00;99752.00;4969131;28;20194;-43
2023/12/29 08:24:48;;;;;;;21.40;4.20;;;;;;;7.73;100.00;99750.44;4963136;28;20173;-43
2023/12/29 08:27:22;;;;;;;21.50;3.88;;;;;;;7.67;100.00;99780.03;4968127;28;20189;-43
2023/12/29 08:29:47;;;;;;;28.50;4.30;;;;;;;7.64;100.00;99762.38;4963053;28;20268;-44
2023/12/29 08:32:13;;;;;;;18.73;4.38;;;;;;;7.66;100.00;99765.84;4968659;28;20212;-44
2023/12/29 08:34:38;;;;;;;25.10;4.68;;;;;;;7.61;100.00;99750.06;4962659;28;20810;-43
2023/12/29 08:37:04;;;;;;;27.23;4.43;;;;;;;7.66;100.00;99771.19;4965998;28;20181;-44
2023/12/29 08:39:29;;;;;;;21.48;4.72;;;;;;;7.79;100.00;99768.84;4969359;28;20189;-43
2023/12/29 08:41:55;;;;;;;22.50;4.50;;;;;;;7.74;100.00;99761.06;4966282;28;20337;-43
2023/12/29 08:44:20;;;;;;;20.40;4.05;;;;;;;7.78;100.00;99760.00;4968913;28;20193;-42
2023/12/29 08:46:45;;;;;;;24.10;4.63;;;;;;;7.78;100.00;99756.44;4963557;28;20205;-43
2023/12/29 08:49:11;;;;;;;19.27;3.80;;;;;;;7.83;100.00;99763.31;4968628;28;20221;-44
2023/12/29 08:51:36;;;;;;;20.60;5.50;;;;;;;7.79;100.00;99759.03;4968757;28;20179;-42
2023/12/29 08:54:02;;;;;;;20.27;4.38;;;;;;;7.87;100.00;99750.72;4964574;28;20355;-43
2023/12/29 08:56:29;;;;;;;21.45;4.05;;;;;;;7.81;100.00;99746.50;4969065;28;20202;-43
2023/12/29 08:58:54;;;;;;;27.98;4.65;;;;;;;7.83;100.00;99749.97;4967126;28;20553;-42
2023/12/29 09:01:20;;;;;;;27.52;4.30;;;;;;;7.93;100.00;99749.56;4968287;28;20178;-44
2023/12/29 09:03:45;;;;;;;34.10;4.40;;;;;;;7.83;100.00;99759.78;4966583;28;20202;-43
2023/12/29 09:06:11;;;;;;;22.42;4.32;;;;;;;7.94;100.00;99754.84;4967744;28;20167;-43
2023/12/29 09:08:37;;;;;;;20.50;3.75;;;;;;;7.91;100.00;99740.75;4968409;28;20186;-42
2023/12/29 09:11:04;;;;;;;24.95;4.30;;;;;;;7.88;100.00;99757.78;4967010;28;20309;-43
2023/12/29 09:13:29;;;;;;;21.35;4.35;;;;;;;7.90;100.00;99760.38;4967134;28;20201;-44
2023/12/29 09:15:55;;;;;;;26.83;4.43;;;;;;;7.97;100.00;99762.69;4950829;28;20237;-44
2023/12/29 09:18:21;;;;;;;23.88;4.57;;;;;;;7.91;100.00;99773.63;4958754;28;20315;-45
2023/12/29 09:20:47;;;;;;;20.88;4.45;;;;;;;7.78;100.00;99786.66;4962693;28;20305;-45
2023/12/29 09:23:13;;;;;;;22.75;4.28;;;;;;;7.92;100.00;99782.50;4964345;28;20214;-43
2023/12/29 09:25:38;;;;;;;20.67;3.90;;;;;;;7.80;100.00;99775.91;4959920;28;20255;-43
2023/12/29 09:28:04;;;;;;;21.30;4.90;;;;;;;7.88;100.00;99772.91;4960064;28;20200;-43
2023/12/29 09:30:29;;;;;;;23.92;4.22;;;;;;;7.80;100.00;99775.91;4963098;28;20209;-45
2023/12/29 09:32:54;;;;;;;21.88;4.43;;;;;;;7.81;100.00;99775.84;4958120;28;20733;-44
2023/12/29 09:35:20;;;;;;;22.35;5.00;;;;;;;7.89;100.00;99774.63;4960678;28;20217;-45
2023/12/29 09:37:48;;;;;;;23.52;4.07;;;;;;;7.81;100.00;99754.50;4962131;28;20174;-44
2023/12/29 09:40:14;;;;;;;29.20;5.10;;;;;;;7.87;100.00;99769.38;4961500;28;20178;-43
2023/12/29 09:42:41;;;;;;;17.15;4.68;;;;;;;7.97;100.00;99761.84;4959668;28;20297;-44
2023/12/29 09:45:11;;;;;;;19.50;4.53;;;;;;;8.02;100.00;99775.81;4958180;28;20178;-43
2023/12/29 09:47:39;;;;;;;20.85;4.25;;;;;;;8.03;100.00;99754.41;4960301;28;20174;-43
2023/12/29 09:50:07;;;;;;;25.20;4.78;;;;;;;7.98;100.00;99759.09;4959973;28;20193;-44
2023/12/29 09:52:34;;;;;;;22.48;3.88;;;;;;;8.08;100.00;99743.53;4960537;28;20201;-44
2023/12/29 09:55:00;;;;;;;23.73;4.28;;;;;;;8.04;100.00;99763.28;4960394;28;20205;-44
2023/12/29 09:57:26;;;;;;;24.35;4.20;;;;;;;8.11;100.00;99754.09;4962158;28;20180;-43
2023/12/29 09:59:52;;;;;;;25.20;4.88;;;;;;;8.21;100.00;99755.38;4960069;28;20653;-43
2023/12/29 10:02:17;;;;;;;21.00;4.55;;;;;;;8.30;100.00;99746.09;4959442;28;20174;-43
2023/12/29 10:04:43;;;;;;;23.08;4.38;;;;;;;8.36;99.79;99758.28;4960150;28;20193;-43
2023/12/29 10:07:13;;;;;;;24.10;4.30;;;;;;;8.43;99.14;99736.59;4962221;28;20194;-43
2023/12/29 10:09:40;;;;;;;24.27;3.75;;;;;;;8.47;98.85;99742.66;4962313;28;20202;-44
2023/12/29 10:12:09;;;;;;;24.67;4.38;;;;;;;8.48;98.54;99731.03;4960451;28;20699;-44
2023/12/29 10:14:45;;;;;;;21.63;3.67;;;;;;;8.29;97.71;99740.81;4948202;28;20214;-43
2023/12/29 10:17:39;;;;;;;23.17;3.85;;;;;;;8.21;97.08;99735.84;4960338;28;20232;-43
2023/12/29 10:20:40;;;;;;;19.42;3.20;;;;;;;8.20;96.63;99744.81;4963853;28;20170;-43
2023/12/29 10:23:12;;;;;;;20.90;4.05;;;;;;;8.10;96.38;99725.66;4966023;28;20212;-43
2023/12/29 10:25:38;;;;;;;17.15;3.70;;;;;;;8.16;96.23;99717.38;4967605;28;20249;-44
2023/12/29 10:28:06;;;;;;;15.23;2.65;;;;;;;8.29;96.01;99714.13;4965025;28;20286;-43
2023/12/29 10:30:32;;;;;;;14.55;3.15;;;;;;;8.24;96.23;99733.91;4967519;28;20194;-43
2023/12/29 10:32:58;;;;;;;16.48;3.97;;;;;;;8.33;95.99;99707.72;4964950;28;20624;-45
2023/12/29 10:35:24;;;;;;;21.45;4.03;;;;;;;8.28;95.96;99717.75;4966678;28;20539;-43
2023/12/29 10:37:49;;;;;;;15.02;3.42;;;;;;;8.35;95.98;99719.19;4966246;28;20756;-42
2023/12/29 10:40:19;;;;;;;19.50;3.33;;;;;;;8.25;95.69;99713.41;4966708;28;20180;-42
2023/12/29 10:43:05;;;;;;;15.43;2.65;;;;;;;8.25;95.72;99716.94;4966119;28;21126;-44
2023/12/29 10:45:30;;;;;;;15.68;3.20;;;;;;;8.32;96.00;99719.34;4963708;28;20166;-43
2023/12/29 10:47:56;;;;;;;16.23;3.08;;;;;;;8.25;95.59;99695.59;4965881;28;20178;-42
2023/12/29 10:50:21;;;;;;;18.20;2.78;;;;;;;8.31;95.73;99712.25;4970104;28;20260;-43
2023/12/29 10:52:47;;;;;;;20.10;3.28;;;;;;;8.38;95.61;99703.03;4970038;28;20294;-43
2023/12/29 10:55:12;;;;;;;17.30;2.90;;;;;;;8.35;95.51;99698.72;4970247;28;20330;-43
2023/12/29 10:57:39;;;;;;;20.98;3.83;;;;;;;8.33;95.58;99705.03;4968318;28;20202;-43
2023/12/29 11:00:08;;;;;;;20.05;3.53;;;;;;;8.30;95.70;99711.38;4969844;28;20178;-44
2023/12/29 11:02:35;;;;;;;21.88;3.22;;;;;;;8.30;95.98;99721.22;4968421;28;20202;-44
2023/12/29 11:05:06;;;;;;;16.98;3.15;;;;;;;8.30;96.02;99707.88;4969421;28;20604;-45
2023/12/29 11:07:36;;;;;;;21.85;3.85;;;;;;;8.23;96.08;99721.50;4970867;28;20180;-44
2023/12/29 11:10:09;;;;;;;17.05;3.30;;;;;;;8.20;96.27;99694.09;4967615;28;20186;-44
2023/12/29 11:12:36;;;;;;;17.70;3.67;;;;;;;8.20;96.12;99726.97;4968041;28;20213;-44
2023/12/29 11:15:07;;;;;;;18.38;3.30;;;;;;;8.23;96.04;99723.28;4969534;28;20241;-43
2023/12/29 11:17:35;;;;;;;17.20;2.90;;;;;;;8.13;96.36;99730.84;4968277;28;20640;-43
2023/12/29 11:20:03;;;;;;;18.75;3.97;;;;;;;8.15;96.53;99722.78;4969462;28;20174;-44
2023/12/29 11:22:32;;;;;;;15.10;3.45;;;;;;;8.19;96.44;99730.56;4969955;28;20313;-45